sensor_id;sensor_type;location;lat;lon;timestamp;P1;durP1;ratioP1;P2;durP2;ratioP2
74415;SDS011;62850;42.428;25.618;2024-02-26T00:02:25;9.93;;;5.30;;
74415;SDS011;62850;42.428;25.618;2024-02-26T00:04:50;8.48;;;5.07;;
74415;SDS011;62850;42.428;25.618;2024-02-26T00:07:16;10.43;;;5.60;;
74415;SDS011;62850;42.428;25.618;2024-02-26T00:09:41;11.15;;;5.70;;
74415;SDS011;62850;42.428;25.618;2024-02-26T00:12:07;9.82;;;5.70;;
74415;SDS011;62850;42.428;25.618;2024-02-26T00:14:32;9.60;;;5.07;;
74415;SDS011;62850;42.428;25.618;2024-02-26T00:16:58;9.38;;;5.70;;
74415;SDS011;62850;42.428;25.618;2024-02-26T00:19:23;10.82;;;5.90;;
74415;SDS011;62850;42.428;25.618;2024-02-26T00:21:49;11.00;;;5.80;;
74415;SDS011;62850;42.428;25.618;2024-02-26T00:24:14;11.50;;;5.90;;
74415;SDS011;62850;42.428;25.618;2024-02-26T00:26:40;10.23;;;6.07;;
74415;SDS011;62850;42.428;25.618;2024-02-26T00:29:05;11.35;;;6.05;;
74415;SDS011;62850;42.428;25.618;2024-02-26T00:31:31;9.50;;;5.88;;
74415;SDS011;62850;42.428;25.618;2024-02-26T00:33:56;11.70;;;6.35;;
74415;SDS011;62850;42.428;25.618;2024-02-26T00:36:22;12.57;;;5.95;;
74415;SDS011;62850;42.428;25.618;2024-02-26T00:38:47;9.73;;;5.82;;
74415;SDS011;62850;42.428;25.618;2024-02-26T00:41:18;11.25;;;6.10;;
74415;SDS011;62850;42.428;25.618;2024-02-26T00:43:45;10.82;;;5.68;;
74415;SDS011;62850;42.428;25.618;2024-02-26T00:46:10;9.80;;;6.28;;
74415;SDS011;62850;42.428;25.618;2024-02-26T00:48:36;12.23;;;5.70;;
74415;SDS011;62850;42.428;25.618;2024-02-26T00:51:02;12.25;;;6.22;;
74415;SDS011;62850;42.428;25.618;2024-02-26T00:53:30;10.38;;;5.38;;
74415;SDS011;62850;42.428;25.618;2024-02-26T00:55:56;10.80;;;6.00;;
74415;SDS011;62850;42.428;25.618;2024-02-26T00:58:21;10.50;;;5.80;;
74415;SDS011;62850;42.428;25.618;2024-02-26T01:00:47;10.48;;;5.57;;
74415;SDS011;62850;42.428;25.618;2024-02-26T01:03:12;9.07;;;5.65;;
74415;SDS011;62850;42.428;25.618;2024-02-26T01:05:38;11.93;;;6.05;;
74415;SDS011;62850;42.428;25.618;2024-02-26T01:08:04;9.75;;;5.55;;
74415;SDS011;62850;42.428;25.618;2024-02-26T01:10:29;11.02;;;5.80;;
74415;SDS011;62850;42.428;25.618;2024-02-26T01:12:55;11.35;;;5.72;;
74415;SDS011;62850;42.428;25.618;2024-02-26T01:15:20;9.73;;;5.05;;
74415;SDS011;62850;42.428;25.618;2024-02-26T01:17:48;10.10;;;6.15;;
74415;SDS011;62850;42.428;25.618;2024-02-26T01:20:15;11.27;;;6.05;;
74415;SDS011;62850;42.428;25.618;2024-02-26T01:22:40;10.18;;;5.47;;
74415;SDS011;62850;42.428;25.618;2024-02-26T01:25:06;10.82;;;5.10;;
74415;SDS011;62850;42.428;25.618;2024-02-26T01:27:32;10.65;;;5.82;;
74415;SDS011;62850;42.428;25.618;2024-02-26T01:29:58;10.00;;;5.43;;
74415;SDS011;62850;42.428;25.618;2024-02-26T01:32:23;11.82;;;4.97;;
74415;SDS011;62850;42.428;25.618;2024-02-26T01:34:49;8.98;;;5.63;;
74415;SDS011;62850;42.428;25.618;2024-02-26T01:37:14;9.70;;;6.20;;
74415;SDS011;62850;42.428;25.618;2024-02-26T01:39:40;9.60;;;4.72;;
74415;SDS011;62850;42.428;25.618;2024-02-26T01:42:06;8.95;;;4.95;;
74415;SDS011;62850;42.428;25.618;2024-02-26T01:44:32;12.60;;;5.40;;
74415;SDS011;62850;42.428;25.618;2024-02-26T01:46:57;9.95;;;4.25;;
74415;SDS011;62850;42.428;25.618;2024-02-26T01:49:23;11.90;;;5.78;;
74415;SDS011;62850;42.428;25.618;2024-02-26T01:51:49;10.23;;;4.97;;
74415;SDS011;62850;42.428;25.618;2024-02-26T01:54:14;8.50;;;4.88;;
74415;SDS011;62850;42.428;25.618;2024-02-26T01:56:40;7.93;;;4.50;;
74415;SDS011;62850;42.428;25.618;2024-02-26T01:59:06;8.82;;;4.40;;
74415;SDS011;62850;42.428;25.618;2024-02-26T02:01:33;11.93;;;4.68;;
74415;SDS011;62850;42.428;25.618;2024-02-26T02:04:00;7.97;;;4.90;;
74415;SDS011;62850;42.428;25.618;2024-02-26T02:06:26;8.73;;;4.85;;
74415;SDS011;62850;42.428;25.618;2024-02-26T02:08:53;8.90;;;4.55;;
74415;SDS011;62850;42.428;25.618;2024-02-26T02:11:19;10.88;;;4.53;;
74415;SDS011;62850;42.428;25.618;2024-02-26T02:13:45;9.40;;;4.57;;
74415;SDS011;62850;42.428;25.618;2024-02-26T02:16:11;7.35;;;4.10;;
74415;SDS011;62850;42.428;25.618;2024-02-26T02:18:37;10.45;;;4.78;;
74415;SDS011;62850;42.428;25.618;2024-02-26T02:21:02;9.13;;;4.50;;
74415;SDS011;62850;42.428;25.618;2024-02-26T02:23:28;9.65;;;5.20;;
74415;SDS011;62850;42.428;25.618;2024-02-26T02:25:54;8.85;;;4.30;;
74415;SDS011;62850;42.428;25.618;2024-02-26T02:28:22;11.00;;;4.40;;
74415;SDS011;62850;42.428;25.618;2024-02-26T02:30:49;10.27;;;4.68;;
74415;SDS011;62850;42.428;25.618;2024-02-26T02:33:15;9.30;;;5.18;;
74415;SDS011;62850;42.428;25.618;2024-02-26T02:35:41;10.15;;;4.63;;
74415;SDS011;62850;42.428;25.618;2024-02-26T02:38:07;9.00;;;4.63;;
74415;SDS011;62850;42.428;25.618;2024-02-26T02:40:32;10.73;;;4.97;;
74415;SDS011;62850;42.428;25.618;2024-02-26T02:42:57;9.98;;;4.88;;
74415;SDS011;62850;42.428;25.618;2024-02-26T02:45:25;10.80;;;4.90;;
74415;SDS011;62850;42.428;25.618;2024-02-26T02:47:50;8.73;;;5.10;;
74415;SDS011;62850;42.428;25.618;2024-02-26T02:50:16;6.88;;;3.88;;
74415;SDS011;62850;42.428;25.618;2024-02-26T02:52:41;9.73;;;4.30;;
74415;SDS011;62850;42.428;25.618;2024-02-26T02:55:07;10.35;;;4.90;;
74415;SDS011;62850;42.428;25.618;2024-02-26T02:57:33;8.68;;;4.60;;
74415;SDS011;62850;42.428;25.618;2024-02-26T02:59:58;7.70;;;4.68;;
74415;SDS011;62850;42.428;25.618;2024-02-26T03:02:24;7.88;;;4.55;;
74415;SDS011;62850;42.428;25.618;2024-02-26T03:04:52;7.45;;;4.38;;
74415;SDS011;62850;42.428;25.618;2024-02-26T03:07:18;9.23;;;4.88;;
74415;SDS011;62850;42.428;25.618;2024-02-26T03:09:43;9.32;;;4.40;;
74415;SDS011;62850;42.428;25.618;2024-02-26T03:12:08;9.07;;;4.57;;
74415;SDS011;62850;42.428;25.618;2024-02-26T03:14:34;7.68;;;4.32;;
74415;SDS011;62850;42.428;25.618;2024-02-26T03:16:59;9.02;;;4.57;;
74415;SDS011;62850;42.428;25.618;2024-02-26T03:19:25;10.55;;;4.53;;
74415;SDS011;62850;42.428;25.618;2024-02-26T03:21:50;8.43;;;4.57;;
74415;SDS011;62850;42.428;25.618;2024-02-26T03:24:16;10.20;;;4.47;;
74415;SDS011;62850;42.428;25.618;2024-02-26T03:26:41;8.95;;;4.35;;
74415;SDS011;62850;42.428;25.618;2024-02-26T03:29:07;8.45;;;4.70;;
74415;SDS011;62850;42.428;25.618;2024-02-26T03:31:32;10.65;;;4.90;;
74415;SDS011;62850;42.428;25.618;2024-02-26T03:33:58;12.10;;;6.00;;
74415;SDS011;62850;42.428;25.618;2024-02-26T03:36:23;8.98;;;5.05;;
74415;SDS011;62850;42.428;25.618;2024-02-26T03:38:49;8.63;;;5.07;;
74415;SDS011;62850;42.428;25.618;2024-02-26T03:41:14;11.38;;;4.82;;
74415;SDS011;62850;42.428;25.618;2024-02-26T03:43:40;10.57;;;4.63;;
74415;SDS011;62850;42.428;25.618;2024-02-26T03:46:09;8.93;;;5.30;;
74415;SDS011;62850;42.428;25.618;2024-02-26T03:48:36;9.68;;;4.93;;
74415;SDS011;62850;42.428;25.618;2024-02-26T03:51:02;9.98;;;5.07;;
74415;SDS011;62850;42.428;25.618;2024-02-26T03:53:27;8.07;;;4.75;;
74415;SDS011;62850;42.428;25.618;2024-02-26T03:55:53;10.52;;;5.25;;
74415;SDS011;62850;42.428;25.618;2024-02-26T03:58:20;9.88;;;5.10;;
74415;SDS011;62850;42.428;25.618;2024-02-26T04:00:46;10.32;;;5.25;;
74415;SDS011;62850;42.428;25.618;2024-02-26T04:03:12;11.02;;;5.43;;
74415;SDS011;62850;42.428;25.618;2024-02-26T04:05:38;10.23;;;5.00;;
74415;SDS011;62850;42.428;25.618;2024-02-26T04:08:04;11.07;;;5.50;;
74415;SDS011;62850;42.428;25.618;2024-02-26T04:10:32;9.02;;;5.30;;
74415;SDS011;62850;42.428;25.618;2024-02-26T04:12:59;11.57;;;5.18;;
74415;SDS011;62850;42.428;25.618;2024-02-26T04:15:25;9.15;;;5.05;;
74415;SDS011;62850;42.428;25.618;2024-02-26T04:17:50;10.48;;;5.22;;
74415;SDS011;62850;42.428;25.618;2024-02-26T04:20:16;10.32;;;5.25;;
74415;SDS011;62850;42.428;25.618;2024-02-26T04:22:42;11.15;;;5.57;;
74415;SDS011;62850;42.428;25.618;2024-02-26T04:25:07;8.77;;;4.60;;
74415;SDS011;62850;42.428;25.618;2024-02-26T04:27:33;8.88;;;4.72;;
74415;SDS011;62850;42.428;25.618;2024-02-26T04:29:59;11.02;;;5.57;;
74415;SDS011;62850;42.428;25.618;2024-02-26T04:32:24;10.82;;;6.07;;
74415;SDS011;62850;42.428;25.618;2024-02-26T04:34:50;12.05;;;5.22;;
74415;SDS011;62850;42.428;25.618;2024-02-26T04:37:15;10.32;;;5.25;;
74415;SDS011;62850;42.428;25.618;2024-02-26T04:39:41;11.68;;;5.60;;
74415;SDS011;62850;42.428;25.618;2024-02-26T04:42:06;12.63;;;4.80;;
74415;SDS011;62850;42.428;25.618;2024-02-26T04:44:32;8.55;;;5.03;;
74415;SDS011;62850;42.428;25.618;2024-02-26T04:46:57;8.48;;;4.72;;
74415;SDS011;62850;42.428;25.618;2024-02-26T04:49:23;6.90;;;4.47;;
74415;SDS011;62850;42.428;25.618;2024-02-26T04:51:48;10.55;;;4.95;;
74415;SDS011;62850;42.428;25.618;2024-02-26T04:54:14;8.50;;;4.82;;
74415;SDS011;62850;42.428;25.618;2024-02-26T04:56:39;8.05;;;4.72;;
74415;SDS011;62850;42.428;25.618;2024-02-26T04:59:05;8.45;;;4.50;;
74415;SDS011;62850;42.428;25.618;2024-02-26T05:01:30;9.55;;;4.57;;
74415;SDS011;62850;42.428;25.618;2024-02-26T05:03:56;8.48;;;4.78;;
74415;SDS011;62850;42.428;25.618;2024-02-26T05:06:21;7.78;;;4.30;;
74415;SDS011;62850;42.428;25.618;2024-02-26T05:08:47;9.07;;;4.90;;
74415;SDS011;62850;42.428;25.618;2024-02-26T05:11:12;8.40;;;4.53;;
74415;SDS011;62850;42.428;25.618;2024-02-26T05:13:37;7.47;;;4.15;;
74415;SDS011;62850;42.428;25.618;2024-02-26T05:16:03;10.70;;;4.43;;
74415;SDS011;62850;42.428;25.618;2024-02-26T05:18:29;8.55;;;4.85;;
74415;SDS011;62850;42.428;25.618;2024-02-26T05:20:54;9.10;;;4.97;;
74415;SDS011;62850;42.428;25.618;2024-02-26T05:23:20;10.25;;;4.70;;
74415;SDS011;62850;42.428;25.618;2024-02-26T05:25:45;8.13;;;4.53;;
74415;SDS011;62850;42.428;25.618;2024-02-26T05:28:12;9.02;;;4.75;;
74415;SDS011;62850;42.428;25.618;2024-02-26T05:30:40;8.45;;;4.30;;
74415;SDS011;62850;42.428;25.618;2024-02-26T05:33:06;7.47;;;4.57;;
74415;SDS011;62850;42.428;25.618;2024-02-26T05:35:31;10.57;;;4.82;;
74415;SDS011;62850;42.428;25.618;2024-02-26T05:37:57;8.20;;;4.60;;
74415;SDS011;62850;42.428;25.618;2024-02-26T05:40:22;9.10;;;4.53;;
74415;SDS011;62850;42.428;25.618;2024-02-26T05:42:48;10.73;;;4.63;;
74415;SDS011;62850;42.428;25.618;2024-02-26T05:45:14;9.00;;;4.32;;
74415;SDS011;62850;42.428;25.618;2024-02-26T05:47:39;12.63;;;4.57;;
74415;SDS011;62850;42.428;25.618;2024-02-26T05:50:08;8.95;;;5.07;;
74415;SDS011;62850;42.428;25.618;2024-02-26T05:52:35;11.65;;;4.68;;
74415;SDS011;62850;42.428;25.618;2024-02-26T05:55:02;11.40;;;5.60;;
74415;SDS011;62850;42.428;25.618;2024-02-26T05:57:28;12.82;;;5.38;;
74415;SDS011;62850;42.428;25.618;2024-02-26T05:59:53;11.90;;;5.75;;
74415;SDS011;62850;42.428;25.618;2024-02-26T06:02:18;8.90;;;4.18;;
74415;SDS011;62850;42.428;25.618;2024-02-26T06:04:44;10.65;;;4.70;;
74415;SDS011;62850;42.428;25.618;2024-02-26T06:07:09;7.53;;;4.68;;
74415;SDS011;62850;42.428;25.618;2024-02-26T06:09:35;9.82;;;4.60;;
74415;SDS011;62850;42.428;25.618;2024-02-26T06:12:00;7.07;;;3.92;;
74415;SDS011;62850;42.428;25.618;2024-02-26T06:14:25;7.85;;;3.85;;
74415;SDS011;62850;42.428;25.618;2024-02-26T06:16:51;8.77;;;3.55;;
74415;SDS011;62850;42.428;25.618;2024-02-26T06:19:16;8.48;;;3.88;;
74415;SDS011;62850;42.428;25.618;2024-02-26T06:21:42;8.15;;;3.95;;
74415;SDS011;62850;42.428;25.618;2024-02-26T06:24:07;8.68;;;3.85;;
74415;SDS011;62850;42.428;25.618;2024-02-26T06:26:33;7.85;;;3.63;;
74415;SDS011;62850;42.428;25.618;2024-02-26T06:28:58;13.77;;;4.47;;
74415;SDS011;62850;42.428;25.618;2024-02-26T06:31:24;8.68;;;3.17;;
74415;SDS011;62850;42.428;25.618;2024-02-26T06:33:52;6.50;;;3.30;;
74415;SDS011;62850;42.428;25.618;2024-02-26T06:36:18;13.57;;;3.75;;
74415;SDS011;62850;42.428;25.618;2024-02-26T06:38:43;9.38;;;3.25;;
74415;SDS011;62850;42.428;25.618;2024-02-26T06:41:09;9.80;;;3.47;;
74415;SDS011;62850;42.428;25.618;2024-02-26T06:43:34;8.77;;;4.15;;
74415;SDS011;62850;42.428;25.618;2024-02-26T06:46:00;8.95;;;3.20;;
74415;SDS011;62850;42.428;25.618;2024-02-26T06:48:25;9.65;;;3.90;;
74415;SDS011;62850;42.428;25.618;2024-02-26T06:50:51;7.65;;;3.22;;
74415;SDS011;62850;42.428;25.618;2024-02-26T06:53:16;11.90;;;3.40;;
74415;SDS011;62850;42.428;25.618;2024-02-26T06:55:42;8.90;;;3.78;;
74415;SDS011;62850;42.428;25.618;2024-02-26T06:58:08;9.10;;;3.75;;
74415;SDS011;62850;42.428;25.618;2024-02-26T07:00:34;8.27;;;3.55;;
74415;SDS011;62850;42.428;25.618;2024-02-26T07:03:00;11.05;;;3.95;;
74415;SDS011;62850;42.428;25.618;2024-02-26T07:05:25;10.63;;;4.22;;
74415;SDS011;62850;42.428;25.618;2024-02-26T07:07:51;13.20;;;5.38;;
74415;SDS011;62850;42.428;25.618;2024-02-26T07:10:17;12.73;;;4.93;;
74415;SDS011;62850;42.428;25.618;2024-02-26T07:12:43;11.43;;;5.38;;
74415;SDS011;62850;42.428;25.618;2024-02-26T07:15:09;10.63;;;5.40;;
74415;SDS011;62850;42.428;25.618;2024-02-26T07:17:34;15.00;;;6.00;;
74415;SDS011;62850;42.428;25.618;2024-02-26T07:20:00;11.02;;;5.88;;
74415;SDS011;62850;42.428;25.618;2024-02-26T07:22:25;11.57;;;5.80;;
74415;SDS011;62850;42.428;25.618;2024-02-26T07:24:51;13.48;;;5.68;;
74415;SDS011;62850;42.428;25.618;2024-02-26T07:27:18;22.02;;;6.22;;
74415;SDS011;62850;42.428;25.618;2024-02-26T07:29:43;20.10;;;6.75;;
74415;SDS011;62850;42.428;25.618;2024-02-26T07:32:09;15.13;;;7.13;;
74415;SDS011;62850;42.428;25.618;2024-02-26T07:34:35;17.67;;;9.10;;
74415;SDS011;62850;42.428;25.618;2024-02-26T07:37:02;18.27;;;8.40;;
74415;SDS011;62850;42.428;25.618;2024-02-26T07:39:28;14.30;;;8.13;;
74415;SDS011;62850;42.428;25.618;2024-02-26T07:41:53;16.17;;;6.13;;
74415;SDS011;62850;42.428;25.618;2024-02-26T07:44:19;13.68;;;6.32;;
74415;SDS011;62850;42.428;25.618;2024-02-26T07:46:44;13.02;;;7.40;;
74415;SDS011;62850;42.428;25.618;2024-02-26T07:49:10;18.90;;;8.63;;
74415;SDS011;62850;42.428;25.618;2024-02-26T07:51:35;12.23;;;5.82;;
74415;SDS011;62850;42.428;25.618;2024-02-26T07:54:01;10.48;;;4.78;;
74415;SDS011;62850;42.428;25.618;2024-02-26T07:56:27;10.80;;;5.43;;
74415;SDS011;62850;42.428;25.618;2024-02-26T07:58:52;15.68;;;5.57;;
74415;SDS011;62850;42.428;25.618;2024-02-26T08:01:18;13.05;;;5.90;;
74415;SDS011;62850;42.428;25.618;2024-02-26T08:03:43;15.55;;;6.35;;
74415;SDS011;62850;42.428;25.618;2024-02-26T08:06:08;14.02;;;7.18;;
74415;SDS011;62850;42.428;25.618;2024-02-26T08:08:34;18.05;;;6.47;;
74415;SDS011;62850;42.428;25.618;2024-02-26T08:10:59;32.17;;;11.27;;
74415;SDS011;62850;42.428;25.618;2024-02-26T08:13:25;32.28;;;12.25;;
74415;SDS011;62850;42.428;25.618;2024-02-26T08:15:51;22.65;;;11.10;;
74415;SDS011;62850;42.428;25.618;2024-02-26T08:18:17;21.05;;;9.93;;
74415;SDS011;62850;42.428;25.618;2024-02-26T08:20:43;17.55;;;8.68;;
74415;SDS011;62850;42.428;25.618;2024-02-26T08:23:08;15.18;;;7.13;;
74415;SDS011;62850;42.428;25.618;2024-02-26T08:25:34;13.60;;;6.80;;
74415;SDS011;62850;42.428;25.618;2024-02-26T08:27:59;12.23;;;6.72;;
74415;SDS011;62850;42.428;25.618;2024-02-26T08:30:25;14.98;;;8.20;;
74415;SDS011;62850;42.428;25.618;2024-02-26T08:32:50;13.82;;;7.18;;
74415;SDS011;62850;42.428;25.618;2024-02-26T08:35:16;21.42;;;7.75;;
74415;SDS011;62850;42.428;25.618;2024-02-26T08:37:44;14.52;;;8.25;;
74415;SDS011;62850;42.428;25.618;2024-02-26T08:40:10;16.80;;;8.90;;
74415;SDS011;62850;42.428;25.618;2024-02-26T08:42:36;18.02;;;9.23;;
74415;SDS011;62850;42.428;25.618;2024-02-26T08:45:02;19.38;;;9.40;;
74415;SDS011;62850;42.428;25.618;2024-02-26T08:47:28;17.75;;;9.77;;
74415;SDS011;62850;42.428;25.618;2024-02-26T08:49:53;21.27;;;9.27;;
74415;SDS011;62850;42.428;25.618;2024-02-26T08:52:19;16.95;;;9.48;;
74415;SDS011;62850;42.428;25.618;2024-02-26T08:54:46;18.42;;;9.23;;
74415;SDS011;62850;42.428;25.618;2024-02-26T08:57:11;15.10;;;9.05;;
74415;SDS011;62850;42.428;25.618;2024-02-26T08:59:36;26.85;;;11.10;;
74415;SDS011;62850;42.428;25.618;2024-02-26T09:02:02;23.80;;;10.40;;
74415;SDS011;62850;42.428;25.618;2024-02-26T09:04:28;23.85;;;11.10;;
74415;SDS011;62850;42.428;25.618;2024-02-26T09:06:53;24.92;;;11.15;;
74415;SDS011;62850;42.428;25.618;2024-02-26T09:09:19;29.23;;;10.90;;
74415;SDS011;62850;42.428;25.618;2024-02-26T09:11:45;33.65;;;16.05;;
74415;SDS011;62850;42.428;25.618;2024-02-26T09:14:11;19.70;;;10.70;;
74415;SDS011;62850;42.428;25.618;2024-02-26T09:16:37;19.15;;;10.50;;
74415;SDS011;62850;42.428;25.618;2024-02-26T09:19:02;15.90;;;9.38;;
74415;SDS011;62850;42.428;25.618;2024-02-26T09:21:28;15.55;;;8.77;;
74415;SDS011;62850;42.428;25.618;2024-02-26T09:23:54;14.55;;;8.32;;
74415;SDS011;62850;42.428;25.618;2024-02-26T09:26:19;14.43;;;7.95;;
74415;SDS011;62850;42.428;25.618;2024-02-26T09:28:44;12.60;;;7.32;;
74415;SDS011;62850;42.428;25.618;2024-02-26T09:31:10;19.50;;;8.88;;
74415;SDS011;62850;42.428;25.618;2024-02-26T09:33:35;20.13;;;9.85;;
74415;SDS011;62850;42.428;25.618;2024-02-26T09:36:01;16.17;;;11.25;;
74415;SDS011;62850;42.428;25.618;2024-02-26T09:38:27;23.95;;;12.35;;
74415;SDS011;62850;42.428;25.618;2024-02-26T09:40:53;19.80;;;13.15;;
74415;SDS011;62850;42.428;25.618;2024-02-26T09:43:21;22.42;;;13.95;;
74415;SDS011;62850;42.428;25.618;2024-02-26T09:45:49;21.35;;;12.27;;
74415;SDS011;62850;42.428;25.618;2024-02-26T09:48:16;16.48;;;11.35;;
74415;SDS011;62850;42.428;25.618;2024-02-26T09:50:43;20.60;;;11.80;;
74415;SDS011;62850;42.428;25.618;2024-02-26T09:53:10;23.10;;;12.57;;
74415;SDS011;62850;42.428;25.618;2024-02-26T09:55:37;22.02;;;12.35;;
74415;SDS011;62850;42.428;25.618;2024-02-26T09:58:03;36.42;;;12.70;;
74415;SDS011;62850;42.428;25.618;2024-02-26T10:00:30;22.35;;;11.88;;
74415;SDS011;62850;42.428;25.618;2024-02-26T10:02:59;25.80;;;12.35;;
74415;SDS011;62850;42.428;25.618;2024-02-26T10:05:29;24.20;;;10.77;;
74415;SDS011;62850;42.428;25.618;2024-02-26T10:07:56;21.83;;;10.98;;
74415;SDS011;62850;42.428;25.618;2024-02-26T10:10:22;22.70;;;10.07;;
74415;SDS011;62850;42.428;25.618;2024-02-26T10:12:48;23.65;;;10.82;;
74415;SDS011;62850;42.428;25.618;2024-02-26T10:15:14;26.30;;;13.60;;
74415;SDS011;62850;42.428;25.618;2024-02-26T10:17:40;23.17;;;12.23;;
74415;SDS011;62850;42.428;25.618;2024-02-26T10:20:13;17.65;;;11.05;;
74415;SDS011;62850;42.428;25.618;2024-02-26T10:22:48;15.95;;;9.02;;
74415;SDS011;62850;42.428;25.618;2024-02-26T10:25:14;14.88;;;8.98;;
74415;SDS011;62850;42.428;25.618;2024-02-26T10:27:40;18.05;;;7.68;;
74415;SDS011;62850;42.428;25.618;2024-02-26T10:30:16;14.77;;;8.18;;
74415;SDS011;62850;42.428;25.618;2024-02-26T10:32:47;17.45;;;8.60;;
74415;SDS011;62850;42.428;25.618;2024-02-26T10:35:16;14.50;;;8.30;;
74415;SDS011;62850;42.428;25.618;2024-02-26T10:37:42;12.35;;;7.70;;
74415;SDS011;62850;42.428;25.618;2024-02-26T10:40:11;15.82;;;7.60;;
74415;SDS011;62850;42.428;25.618;2024-02-26T10:42:38;13.10;;;7.53;;
74415;SDS011;62850;42.428;25.618;2024-02-26T10:45:08;13.07;;;7.22;;
74415;SDS011;62850;42.428;25.618;2024-02-26T10:47:35;16.40;;;8.15;;
74415;SDS011;62850;42.428;25.618;2024-02-26T10:50:02;16.95;;;7.55;;
74415;SDS011;62850;42.428;25.618;2024-02-26T10:52:28;14.85;;;7.05;;
74415;SDS011;62850;42.428;25.618;2024-02-26T10:54:57;11.45;;;6.90;;
74415;SDS011;62850;42.428;25.618;2024-02-26T10:57:27;13.73;;;7.43;;
74415;SDS011;62850;42.428;25.618;2024-02-26T10:59:57;13.05;;;7.18;;
74415;SDS011;62850;42.428;25.618;2024-02-26T11:02:25;11.88;;;6.10;;
74415;SDS011;62850;42.428;25.618;2024-02-26T11:04:52;11.40;;;5.90;;
74415;SDS011;62850;42.428;25.618;2024-02-26T11:07:18;11.32;;;5.45;;
74415;SDS011;62850;42.428;25.618;2024-02-26T11:09:45;10.82;;;5.43;;
74415;SDS011;62850;42.428;25.618;2024-02-26T11:12:17;10.50;;;5.10;;
74415;SDS011;62850;42.428;25.618;2024-02-26T11:14:45;9.73;;;5.13;;
74415;SDS011;62850;42.428;25.618;2024-02-26T11:17:11;10.45;;;4.97;;
74415;SDS011;62850;42.428;25.618;2024-02-26T11:19:38;15.40;;;6.95;;
74415;SDS011;62850;42.428;25.618;2024-02-26T11:22:04;13.90;;;6.00;;
74415;SDS011;62850;42.428;25.618;2024-02-26T11:24:29;13.43;;;6.88;;
74415;SDS011;62850;42.428;25.618;2024-02-26T11:26:57;13.88;;;7.32;;
74415;SDS011;62850;42.428;25.618;2024-02-26T11:29:29;13.88;;;6.32;;
74415;SDS011;62850;42.428;25.618;2024-02-26T11:32:03;13.95;;;6.72;;
74415;SDS011;62850;42.428;25.618;2024-02-26T11:34:30;11.73;;;6.47;;
74415;SDS011;62850;42.428;25.618;2024-02-26T11:36:55;11.15;;;6.15;;
74415;SDS011;62850;42.428;25.618;2024-02-26T11:39:21;9.70;;;5.75;;
74415;SDS011;62850;42.428;25.618;2024-02-26T11:41:48;10.85;;;5.97;;
74415;SDS011;62850;42.428;25.618;2024-02-26T11:44:15;16.80;;;6.32;;
74415;SDS011;62850;42.428;25.618;2024-02-26T11:46:54;14.00;;;6.70;;
74415;SDS011;62850;42.428;25.618;2024-02-26T11:51:54;12.88;;;7.63;;
74415;SDS011;62850;42.428;25.618;2024-02-26T11:54:39;13.70;;;7.50;;
74415;SDS011;62850;42.428;25.618;2024-02-26T11:57:30;13.85;;;7.70;;
74415;SDS011;62850;42.428;25.618;2024-02-26T12:05:16;12.18;;;7.00;;
74415;SDS011;62850;42.428;25.618;2024-02-26T12:10:31;14.05;;;7.82;;
74415;SDS011;62850;42.428;25.618;2024-02-26T12:13:12;12.70;;;6.80;;
74415;SDS011;62850;42.428;25.618;2024-02-26T12:15:46;14.32;;;7.57;;
74415;SDS011;62850;42.428;25.618;2024-02-26T12:18:20;10.68;;;7.22;;
74415;SDS011;62850;42.428;25.618;2024-02-26T12:20:57;13.98;;;6.57;;
74415;SDS011;62850;42.428;25.618;2024-02-26T12:23:26;13.20;;;6.90;;
74415;SDS011;62850;42.428;25.618;2024-02-26T12:25:52;12.55;;;6.95;;
74415;SDS011;62850;42.428;25.618;2024-02-26T12:28:17;12.55;;;6.53;;
74415;SDS011;62850;42.428;25.618;2024-02-26T12:30:43;12.90;;;6.72;;
74415;SDS011;62850;42.428;25.618;2024-02-26T12:33:08;12.30;;;7.13;;
74415;SDS011;62850;42.428;25.618;2024-02-26T12:35:34;12.77;;;6.93;;
74415;SDS011;62850;42.428;25.618;2024-02-26T12:38:00;11.18;;;5.43;;
74415;SDS011;62850;42.428;25.618;2024-02-26T12:40:26;10.75;;;5.70;;
74415;SDS011;62850;42.428;25.618;2024-02-26T12:42:52;10.25;;;6.05;;
74415;SDS011;62850;42.428;25.618;2024-02-26T12:45:20;8.48;;;5.15;;
74415;SDS011;62850;42.428;25.618;2024-02-26T12:47:45;10.95;;;4.72;;
74415;SDS011;62850;42.428;25.618;2024-02-26T12:50:12;8.65;;;4.15;;
74415;SDS011;62850;42.428;25.618;2024-02-26T12:52:43;6.60;;;3.80;;
74415;SDS011;62850;42.428;25.618;2024-02-26T12:55:10;8.90;;;3.78;;
74415;SDS011;62850;42.428;25.618;2024-02-26T12:57:41;8.45;;;3.88;;
74415;SDS011;62850;42.428;25.618;2024-02-26T13:00:08;9.82;;;3.83;;
74415;SDS011;62850;42.428;25.618;2024-02-26T13:02:37;10.43;;;4.72;;
74415;SDS011;62850;42.428;25.618;2024-02-26T13:05:04;9.23;;;4.60;;
74415;SDS011;62850;42.428;25.618;2024-02-26T13:07:32;9.35;;;4.43;;
74415;SDS011;62850;42.428;25.618;2024-02-26T13:09:58;9.18;;;4.10;;
74415;SDS011;62850;42.428;25.618;2024-02-26T13:12:24;10.15;;;4.32;;
74415;SDS011;62850;42.428;25.618;2024-02-26T13:15:02;9.43;;;4.30;;
74415;SDS011;62850;42.428;25.618;2024-02-26T13:17:31;10.82;;;4.50;;
74415;SDS011;62850;42.428;25.618;2024-02-26T13:19:57;8.95;;;4.03;;
74415;SDS011;62850;42.428;25.618;2024-02-26T13:22:23;9.65;;;4.15;;
74415;SDS011;62850;42.428;25.618;2024-02-26T13:24:56;11.38;;;4.10;;
74415;SDS011;62850;42.428;25.618;2024-02-26T13:27:22;10.85;;;4.72;;
74415;SDS011;62850;42.428;25.618;2024-02-26T13:29:48;8.63;;;3.88;;
74415;SDS011;62850;42.428;25.618;2024-02-26T13:32:14;8.35;;;4.47;;
74415;SDS011;62850;42.428;25.618;2024-02-26T13:34:39;9.18;;;4.53;;
74415;SDS011;62850;42.428;25.618;2024-02-26T13:37:05;7.88;;;3.97;;
74415;SDS011;62850;42.428;25.618;2024-02-26T13:39:30;10.25;;;4.68;;
74415;SDS011;62850;42.428;25.618;2024-02-26T13:41:56;7.88;;;4.13;;
74415;SDS011;62850;42.428;25.618;2024-02-26T13:44:23;10.15;;;4.88;;
74415;SDS011;62850;42.428;25.618;2024-02-26T13:46:49;9.95;;;3.95;;
74415;SDS011;62850;42.428;25.618;2024-02-26T13:49:15;8.35;;;4.00;;
74415;SDS011;62850;42.428;25.618;2024-02-26T13:51:40;7.93;;;3.63;;
74415;SDS011;62850;42.428;25.618;2024-02-26T13:54:06;11.10;;;4.13;;
74415;SDS011;62850;42.428;25.618;2024-02-26T13:56:32;8.98;;;3.40;;
74415;SDS011;62850;42.428;25.618;2024-02-26T13:58:58;7.65;;;3.78;;
74415;SDS011;62850;42.428;25.618;2024-02-26T14:01:24;7.82;;;3.88;;
74415;SDS011;62850;42.428;25.618;2024-02-26T14:03:49;8.43;;;4.57;;
74415;SDS011;62850;42.428;25.618;2024-02-26T14:06:15;8.90;;;4.38;;
74415;SDS011;62850;42.428;25.618;2024-02-26T14:08:41;7.60;;;3.80;;
74415;SDS011;62850;42.428;25.618;2024-02-26T14:11:06;8.35;;;3.70;;
74415;SDS011;62850;42.428;25.618;2024-02-26T14:13:32;7.95;;;3.78;;
74415;SDS011;62850;42.428;25.618;2024-02-26T14:15:58;8.43;;;3.80;;
74415;SDS011;62850;42.428;25.618;2024-02-26T14:18:23;8.68;;;3.85;;
74415;SDS011;62850;42.428;25.618;2024-02-26T14:20:49;8.45;;;3.80;;
74415;SDS011;62850;42.428;25.618;2024-02-26T14:23:15;8.77;;;4.03;;
74415;SDS011;62850;42.428;25.618;2024-02-26T14:25:40;8.93;;;4.47;;
74415;SDS011;62850;42.428;25.618;2024-02-26T14:28:06;8.50;;;4.38;;
74415;SDS011;62850;42.428;25.618;2024-02-26T14:30:31;6.88;;;4.07;;
74415;SDS011;62850;42.428;25.618;2024-02-26T14:32:57;7.65;;;3.92;;